createdAt,value
2019-03-04T00:00:46.677Z,99003.13
2019-03-04T00:03:18.212Z,98999.62
2019-03-04T00:05:49.100Z,98990.05
2019-03-04T00:08:18.041Z,98988.11
2019-03-04T00:10:48.857Z,98976.09
2019-03-04T00:13:19.829Z,98990.83
2019-03-04T00:15:50.032Z,98994.61
2019-03-04T00:18:20.942Z,98976.94
2019-03-04T00:20:50.303Z,98970.99
2019-03-04T00:23:19.420Z,98973.13
2019-03-04T00:25:51.929Z,98981.66
2019-03-04T00:28:25.822Z,98978.92
2019-03-04T00:30:54.518Z,98981.66
2019-03-04T00:33:26.717Z,98986.39
2019-03-04T00:35:55.765Z,99000.43
2019-03-04T00:38:26.473Z,98999.31
2019-03-04T00:40:55.294Z,99011.16
2019-03-04T00:43:26.619Z,99019.77
2019-03-04T00:45:55.837Z,99016.48
2019-03-04T00:48:28.411Z,99002.87
2019-03-04T00:50:57.424Z,99003.30
2019-03-04T00:53:26.383Z,98987.23
2019-03-04T00:55:56.689Z,98991.80
2019-03-04T00:58:32.143Z,99002.62
2019-03-04T01:01:01.433Z,98997.86
2019-03-04T01:03:31.657Z,98996.42
2019-03-04T01:06:03.469Z,98987.45
2019-03-04T01:08:34.868Z,98982.28
2019-03-04T01:11:06.402Z,98968.77
2019-03-04T01:13:37.144Z,98962.27
2019-03-04T01:16:07.942Z,98950.16
2019-03-04T01:18:37.034Z,98946.58
2019-03-04T01:21:07.012Z,98933.84
2019-03-04T01:23:40.219Z,98928.00
2019-03-04T01:26:14.329Z,98908.03
2019-03-04T01:28:45.758Z,98895.86
2019-03-04T01:31:14.470Z,98901.18
2019-03-04T01:33:45.431Z,98882.41
2019-03-04T01:36:16.757Z,98857.91
2019-03-04T01:38:47.443Z,98847.56
2019-03-04T01:41:19.489Z,98841.28
2019-03-04T01:43:48.433Z,98835.90
2019-03-04T01:46:20.523Z,98822.17
2019-03-04T01:48:49.099Z,98812.11
2019-03-04T01:51:18.137Z,98815.97
2019-03-04T01:53:49.116Z,98806.31
2019-03-04T01:56:18.560Z,98779.97
2019-03-04T01:58:51.726Z,98789.42
2019-03-04T02:01:20.400Z,98770.84
2019-03-04T02:03:49.465Z,98773.28
2019-03-04T02:06:18.842Z,98762.59
2019-03-04T02:08:48.008Z,98765.48
2019-03-04T02:11:21.232Z,98755.72
2019-03-04T02:13:51.822Z,98750.91
2019-03-04T02:16:22.457Z,98744.19
2019-03-04T02:18:52.845Z,98722.89
2019-03-04T02:21:23.188Z,98705.05
2019-03-04T02:23:58.303Z,98704.78
2019-03-04T02:26:31.275Z,98703.27
2019-03-04T02:29:00.344Z,98697.14
2019-03-04T02:31:29.351Z,98695.82
2019-03-04T02:33:59.987Z,98686.92
2019-03-04T02:36:33.641Z,98691.23
2019-03-04T02:39:01.640Z,98685.56
2019-03-04T02:41:33.009Z,98690.65
2019-03-04T02:44:04.221Z,98681.38
2019-03-04T02:46:33.400Z,98677.53
2019-03-04T02:49:05.284Z,98675.47
2019-03-04T02:51:34.430Z,98664.99
2019-03-04T02:54:05.237Z,98669.92
2019-03-04T02:56:34.130Z,98658.13
2019-03-04T02:59:04.761Z,98650.80
2019-03-04T03:01:39.062Z,98630.69
2019-03-04T03:04:08.547Z,98618.39
2019-03-04T03:06:37.658Z,98605.52
2019-03-04T03:09:11.355Z,98585.17
2019-03-04T03:11:44.399Z,98581.81
2019-03-04T03:14:13.220Z,98593.23
2019-03-04T03:16:46.680Z,98583.47
2019-03-04T03:19:17.592Z,98584.70
2019-03-04T03:21:49.971Z,98570.13
2019-03-04T03:24:20.330Z,98557.12
2019-03-04T03:26:50.246Z,98557.34
2019-03-04T03:29:22.417Z,98549.77
2019-03-04T03:31:52.901Z,98538.67
2019-03-04T03:34:23.628Z,98525.33
2019-03-04T03:36:56.884Z,98525.92
2019-03-04T03:39:29.128Z,98511.97
2019-03-04T03:41:59.524Z,98503.05
2019-03-04T03:44:28.307Z,98537.01
2019-03-04T03:46:58.336Z,98533.63
2019-03-04T03:49:27.386Z,98509.44
2019-03-04T03:51:57.981Z,98506.80
2019-03-04T03:54:31.779Z,98504.88
2019-03-04T03:57:05.063Z,98508.00
2019-03-04T03:59:38.503Z,98495.62
2019-03-04T04:02:09.538Z,98504.63
2019-03-04T04:04:38.467Z,98483.83
2019-03-04T04:07:09.272Z,98494.77
2019-03-04T04:09:39.202Z,98499.23
2019-03-04T04:12:09.512Z,98500.68
2019-03-04T04:14:39.100Z,98496.58
2019-03-04T04:17:12.497Z,98490.19
2019-03-04T04:19:41.744Z,98480.42
2019-03-04T04:22:13.981Z,98481.41
2019-03-04T04:24:45.382Z,98478.02
2019-03-04T04:27:14.389Z,98469.81
2019-03-04T04:29:45.424Z,98467.17
2019-03-04T04:32:14.390Z,98444.92
2019-03-04T04:34:43.229Z,98444.33
2019-03-04T04:37:12.422Z,98444.11
2019-03-04T04:39:41.572Z,98444.20
2019-03-04T04:42:10.430Z,98428.92
2019-03-04T04:44:42.849Z,98410.00
2019-03-04T04:47:16.027Z,98398.86
2019-03-04T04:49:44.948Z,98379.23
2019-03-04T04:52:17.376Z,98376.11
2019-03-04T04:54:47.861Z,98362.55
2019-03-04T04:57:20.055Z,98363.04
2019-03-04T04:59:54.085Z,98364.11
2019-03-04T05:02:23.338Z,98359.90
2019-03-04T05:04:52.144Z,98361.92
2019-03-04T05:07:20.986Z,98351.80
2019-03-04T05:09:50.119Z,98332.78
2019-03-04T05:12:19.415Z,98321.56
2019-03-04T05:14:51.852Z,98300.84
2019-03-04T05:17:24.399Z,98329.38
2019-03-04T05:19:55.996Z,98326.47
2019-03-04T05:22:29.756Z,98310.78
2019-03-04T05:24:58.557Z,98286.87
2019-03-04T05:27:27.881Z,98279.76
2019-03-04T05:29:59.005Z,98255.27
2019-03-04T05:32:27.686Z,98264.77
2019-03-04T05:34:56.846Z,98237.91
2019-03-04T05:37:27.419Z,98218.42
2019-03-04T05:39:56.301Z,98215.88
2019-03-04T05:42:26.885Z,98228.63
2019-03-04T05:44:56.995Z,98221.83
2019-03-04T05:47:26.185Z,98210.02
2019-03-04T05:49:58.050Z,98225.28
2019-03-04T05:52:29.297Z,98233.45
2019-03-04T05:54:59.518Z,98239.39
2019-03-04T05:57:28.610Z,98226.14
2019-03-04T05:59:59.143Z,98226.44
2019-03-04T06:02:28.956Z,98195.95
2019-03-04T06:04:59.940Z,98197.05
2019-03-04T06:07:43.438Z,98193.05
2019-03-04T06:10:13.605Z,98176.09
2019-03-04T06:12:42.851Z,98166.95
2019-03-04T06:15:15.325Z,98179.87
2019-03-04T06:17:45.894Z,98175.07
2019-03-04T06:20:15.889Z,98173.55
2019-03-04T06:22:44.893Z,98182.61
2019-03-04T06:25:15.920Z,98171.02
2019-03-04T06:27:45.009Z,98171.17
2019-03-04T06:30:19.312Z,98159.19
2019-03-04T06:32:48.365Z,98150.41
2019-03-04T06:35:17.740Z,98141.37
2019-03-04T06:37:48.410Z,98117.56
2019-03-04T06:40:19.334Z,98113.88
2019-03-04T06:42:49.532Z,98130.84
2019-03-04T06:45:18.618Z,98135.94
2019-03-04T06:47:48.121Z,98129.19
2019-03-04T06:50:47.669Z,98109.31
2019-03-04T06:53:21.388Z,98116.11
2019-03-04T06:56:01.207Z,98124.65
2019-03-04T06:58:32.206Z,98122.56
2019-03-04T07:01:13.621Z,98103.22
2019-03-04T07:04:09.996Z,98102.79
2019-03-04T07:06:42.770Z,98105.27
2019-03-04T07:09:16.927Z,98108.81
2019-03-04T07:11:54.216Z,98104.08
2019-03-04T07:14:23.390Z,98102.83
2019-03-04T07:16:52.989Z,98069.46
2019-03-04T07:19:27.200Z,98091.36
2019-03-04T07:21:58.255Z,98073.15
2019-03-04T07:24:29.002Z,98067.02
2019-03-04T07:26:57.962Z,98063.72
2019-03-04T07:29:28.610Z,98063.78
2019-03-04T07:31:59.584Z,98047.27
2019-03-04T07:34:33.934Z,98036.97
2019-03-04T07:37:02.884Z,98035.09
2019-03-04T07:39:36.413Z,98029.64
2019-03-04T07:42:05.746Z,98022.18
2019-03-04T07:44:35.090Z,98030.61
2019-03-04T07:47:04.235Z,98031.11
2019-03-04T07:49:36.186Z,98014.61
2019-03-04T07:52:06.965Z,98015.11
2019-03-04T07:54:37.890Z,98004.20
2019-03-04T07:57:06.910Z,98002.72
2019-03-04T07:59:36.741Z,97981.84
2019-03-04T08:02:10.777Z,97984.92
2019-03-04T08:28:00.821Z,98208.89
2019-03-04T08:30:29.816Z,98240.31
2019-03-04T08:33:01.922Z,98258.56
2019-03-04T08:35:34.106Z,98286.80
2019-03-04T08:38:03.144Z,98260.84
2019-03-04T08:40:36.798Z,98262.13
2019-03-04T08:43:04.932Z,98235.97
2019-03-04T08:45:34.180Z,98257.52
2019-03-04T08:48:02.899Z,98222.36
2019-03-04T08:50:34.820Z,98210.61
2019-03-04T08:53:08.401Z,98233.00
2019-03-04T08:55:41.589Z,98164.63
2019-03-04T08:58:10.322Z,98167.27
2019-03-04T09:00:43.053Z,98162.63
2019-03-04T09:03:11.781Z,98158.21
2019-03-04T09:05:42.434Z,98166.02
2019-03-04T09:08:11.187Z,98181.54
2019-03-04T09:10:42.116Z,98177.48
2019-03-04T09:13:15.066Z,98167.80
2019-03-04T09:15:46.759Z,98159.79
2019-03-04T09:18:18.668Z,98170.13
2019-03-04T09:20:47.584Z,98163.67
2019-03-04T09:23:20.281Z,98169.80
2019-03-04T09:25:57.562Z,98164.30
2019-03-04T09:28:27.801Z,98172.10
2019-03-04T09:30:58.063Z,98172.10
2019-03-04T09:33:26.616Z,98171.86
2019-03-04T09:35:57.140Z,98169.01
2019-03-04T09:38:27.479Z,98150.55
2019-03-04T09:40:58.037Z,98155.21
2019-03-04T09:43:26.603Z,98155.21
2019-03-04T09:45:55.551Z,98147.41
2019-03-04T09:48:24.109Z,98165.19
2019-03-04T09:50:54.375Z,98142.23
2019-03-04T09:53:22.903Z,98154.59
2019-03-04T09:55:51.495Z,98153.88
2019-03-04T09:58:23.616Z,98135.95
2019-03-04T10:01:16.776Z,98154.78
2019-03-04T10:04:54.040Z,98144.42
2019-03-04T10:08:01.953Z,98149.92
2019-03-04T10:11:04.600Z,98154.22
2019-03-04T10:14:10.493Z,98145.70
2019-03-04T10:17:20.673Z,98145.70
2019-03-04T10:20:38.904Z,98145.72
2019-03-04T10:23:35.089Z,98147.83
2019-03-04T10:26:23.011Z,98148.50
2019-03-04T10:28:56.180Z,98138.85
2019-03-04T10:31:48.725Z,98146.58
2019-03-04T10:34:41.933Z,98126.03
2019-03-04T10:37:43.664Z,98155.20
2019-03-04T10:40:57.938Z,98144.80
2019-03-04T10:43:58.635Z,98160.25
2019-03-04T10:46:51.438Z,98161.37
2019-03-04T10:49:20.263Z,98167.75
2019-03-04T10:51:49.573Z,98157.72
2019-03-04T10:54:19.525Z,98147.17
2019-03-04T10:56:50.452Z,98150.22
2019-03-04T10:59:22.114Z,98147.93
2019-03-04T11:01:52.838Z,98129.72
2019-03-04T11:04:26.516Z,98131.25
2019-03-04T11:06:58.106Z,98120.73
2019-03-04T11:09:29.791Z,98125.48
2019-03-04T11:11:58.379Z,98116.59
2019-03-04T11:14:27.457Z,98120.27
2019-03-04T11:16:56.404Z,98123.91
2019-03-04T11:19:25.539Z,98120.06
2019-03-04T11:21:56.204Z,98136.69
2019-03-04T11:24:24.796Z,98144.61
2019-03-04T11:26:54.170Z,98148.36
2019-03-04T11:29:23.327Z,98144.65
2019-03-04T11:31:51.903Z,98147.23
2019-03-04T11:34:22.158Z,98139.33
2019-03-04T11:36:54.174Z,98119.06
2019-03-04T11:40:03.040Z,98145.29
2019-03-04T11:42:31.790Z,98142.77
2019-03-04T11:45:05.034Z,98133.31
2019-03-04T11:47:35.465Z,98124.81
2019-03-04T11:50:05.885Z,98150.54
2019-03-04T11:52:34.467Z,98161.88
2019-03-04T11:55:05.253Z,98150.28
2019-03-04T11:57:34.502Z,98136.49
2019-03-04T12:00:03.240Z,98140.09
2019-03-04T12:02:38.828Z,98136.31
2019-03-04T12:05:06.285Z,98124.88
2019-03-04T12:07:37.966Z,98122.27
2019-03-04T12:10:09.476Z,98125.48
2019-03-04T12:13:06.976Z,98116.41
2019-03-04T12:15:26.745Z,98113.33
2019-03-04T12:17:57.118Z,98105.58
2019-03-04T12:20:25.858Z,98115.70
2019-03-04T12:23:26.661Z,98105.98
2019-03-04T12:25:55.236Z,98083.76
2019-03-04T12:28:24.395Z,98072.17
2019-03-04T12:30:54.107Z,98072.22
2019-03-04T12:33:26.146Z,98083.13
2019-03-04T12:35:55.442Z,98070.80
2019-03-04T12:38:25.785Z,98060.84
2019-03-04T12:40:54.357Z,98061.25
2019-03-04T12:43:24.811Z,98060.84
2019-03-04T12:45:53.536Z,98065.04
2019-03-04T12:48:23.819Z,98063.77
2019-03-04T12:50:53.955Z,98077.10
2019-03-04T12:53:22.518Z,98071.02
2019-03-04T12:55:54.794Z,98070.16
2019-03-04T12:58:23.379Z,98081.83
2019-03-04T13:00:52.781Z,98095.66
2019-03-04T13:03:23.027Z,98100.16
2019-03-04T13:05:54.019Z,98108.28
2019-03-04T13:08:22.583Z,98130.62
2019-03-04T13:10:51.631Z,98158.92
2019-03-04T13:13:20.757Z,98158.92
2019-03-04T13:15:52.843Z,98192.69
2019-03-04T13:18:24.943Z,98203.78
2019-03-04T13:20:54.041Z,98224.17
2019-03-04T13:23:24.773Z,98239.87
2019-03-04T13:25:58.420Z,98235.03
2019-03-04T13:28:26.386Z,98238.66
2019-03-04T13:31:02.937Z,98233.30
2019-03-04T13:33:31.515Z,98184.15
2019-03-04T13:36:04.982Z,98180.67
2019-03-04T13:38:34.067Z,98193.98
2019-03-04T13:41:02.812Z,98197.30
2019-03-04T13:43:33.806Z,98222.50
2019-03-04T13:46:03.086Z,98243.53
2019-03-04T13:48:32.232Z,98259.14
2019-03-04T13:51:02.777Z,98262.05
2019-03-04T13:53:31.367Z,98286.91
2019-03-04T13:56:00.103Z,98299.95
2019-03-04T13:58:30.791Z,98298.75
2019-03-04T14:00:59.491Z,98303.14
2019-03-04T14:03:30.062Z,98294.44
2019-03-04T14:05:58.956Z,98302.13
2019-03-04T14:08:27.556Z,98312.17
2019-03-04T14:10:59.352Z,98319.45
2019-03-04T14:13:29.854Z,98327.81
2019-03-04T14:16:00.013Z,98348.63
2019-03-04T14:18:29.102Z,98340.81
2019-03-04T14:20:58.167Z,98366.22
2019-03-04T14:23:27.397Z,98356.32
2019-03-04T14:25:57.969Z,98374.69
2019-03-04T14:28:28.396Z,98370.75
2019-03-04T14:30:58.366Z,98382.87
2019-03-04T14:33:27.332Z,98381.71
2019-03-04T14:35:56.339Z,98385.82
2019-03-04T14:38:27.956Z,98388.19
2019-03-04T14:40:56.506Z,98395.93
2019-03-04T14:43:25.458Z,98406.05
2019-03-04T14:45:55.965Z,98408.54
2019-03-04T14:48:26.416Z,98413.92
2019-03-04T14:50:55.319Z,98412.72
2019-03-04T14:53:24.061Z,98415.02
2019-03-04T14:55:52.963Z,98417.77
2019-03-04T14:58:21.693Z,98418.58
2019-03-04T15:00:51.472Z,98424.39
2019-03-04T15:03:23.821Z,98432.33
2019-03-04T15:05:54.610Z,98428.59
2019-03-04T15:08:27.675Z,98450.81
2019-03-04T15:10:56.416Z,98449.13
2019-03-04T15:13:28.670Z,98451.73
2019-03-04T15:16:03.529Z,98447.41
2019-03-04T15:18:31.112Z,98400.78
2019-03-04T15:21:00.017Z,98453.94
2019-03-04T15:23:29.111Z,98446.95
2019-03-04T15:25:57.677Z,98457.38
2019-03-04T15:28:26.732Z,98470.06
2019-03-04T15:30:56.997Z,98472.92
2019-03-04T15:33:25.543Z,98477.81
2019-03-04T15:35:54.482Z,98482.91
2019-03-04T15:38:24.634Z,98481.70
2019-03-04T15:40:53.653Z,98498.50
2019-03-04T15:43:22.249Z,98501.30
2019-03-04T15:45:51.877Z,98518.84
2019-03-04T15:48:21.980Z,98506.71
2019-03-04T15:50:55.628Z,98518.45
2019-03-04T15:53:24.649Z,98522.30
2019-03-04T15:55:53.556Z,98523.13
2019-03-04T15:58:22.562Z,98530.60
2019-03-04T16:00:55.095Z,98521.87
2019-03-04T16:03:29.329Z,98536.80
2019-03-04T16:05:58.105Z,98544.22
2019-03-04T16:08:26.661Z,98541.48
2019-03-04T16:10:55.551Z,98547.98
2019-03-04T16:13:26.395Z,98555.51
2019-03-04T16:16:14.283Z,98549.09
2019-03-04T16:18:43.224Z,98549.09
2019-03-04T16:21:13.946Z,98572.31
2019-03-04T16:23:45.878Z,98556.52
2019-03-04T16:26:15.431Z,98575.78
2019-03-04T16:28:47.788Z,98580.43
2019-03-04T16:31:16.707Z,98586.73
2019-03-04T16:33:47.587Z,98595.86
2019-03-04T16:36:19.895Z,98604.91
2019-03-04T16:38:48.797Z,98590.90
2019-03-04T16:41:17.895Z,98610.76
2019-03-04T16:43:49.554Z,98614.13
2019-03-04T16:46:18.298Z,98621.64
2019-03-04T16:48:51.014Z,98625.34
2019-03-04T16:51:21.831Z,98619.31
2019-03-04T16:53:56.309Z,98627.30
2019-03-04T16:56:31.526Z,98639.04
2019-03-04T16:59:03.861Z,98644.13
2019-03-04T17:01:34.860Z,98656.64
2019-03-04T17:04:03.725Z,98670.20
2019-03-04T17:06:34.825Z,98670.02
2019-03-04T17:09:09.722Z,98672.83
2019-03-04T17:11:40.792Z,98655.71
2019-03-04T17:14:10.257Z,98687.88
2019-03-04T17:16:41.311Z,98691.27
2019-03-04T17:19:10.503Z,98687.13
2019-03-04T17:21:39.262Z,98694.48
2019-03-04T17:24:11.468Z,98720.54
2019-03-04T17:26:43.846Z,98725.33
2019-03-04T17:29:13.039Z,98735.24
2019-03-04T17:31:42.344Z,98727.69
2019-03-04T17:34:11.202Z,98745.67
2019-03-04T17:36:39.957Z,98745.20
2019-03-04T17:39:09.119Z,98754.13
2019-03-04T17:41:42.647Z,98757.25
2019-03-04T17:44:11.335Z,98762.88
2019-03-04T17:46:40.234Z,98764.00
2019-03-04T17:49:09.053Z,98779.25
2019-03-04T17:51:37.832Z,98779.06
2019-03-04T17:54:06.798Z,98792.70
2019-03-04T17:56:35.809Z,98798.03
2019-03-04T17:59:04.592Z,98796.05
2019-03-04T18:01:33.420Z,98807.16
2019-03-04T18:04:03.680Z,98822.36
2019-03-04T18:06:32.593Z,98792.58
2019-03-04T18:09:01.351Z,98817.48
2019-03-04T18:11:30.544Z,98826.20
2019-03-04T18:13:59.283Z,98824.79
2019-03-04T18:16:28.347Z,98839.36
2019-03-04T18:18:57.362Z,98841.69
2019-03-04T18:21:30.859Z,98829.23
2019-03-04T18:23:59.811Z,98854.12
2019-03-04T18:26:33.459Z,98855.33
2019-03-04T18:29:26.745Z,98860.09
2019-03-04T18:32:30.017Z,98876.80
2019-03-04T18:35:36.488Z,98878.60
2019-03-04T18:38:43.564Z,98881.29
2019-03-04T18:41:37.626Z,98887.13
2019-03-04T18:44:46.412Z,98884.67
2019-03-04T18:47:50.901Z,98882.77
2019-03-04T18:50:23.030Z,98890.87
2019-03-04T18:52:54.360Z,98896.28
2019-03-04T18:55:24.703Z,98912.06
2019-03-04T18:57:55.012Z,98888.72
2019-03-04T19:00:25.956Z,98925.69
2019-03-04T19:02:54.991Z,98913.11
2019-03-04T19:05:23.687Z,98921.63
2019-03-04T19:07:53.700Z,98930.38
2019-03-04T19:10:22.594Z,98940.45
2019-03-04T19:12:52.845Z,98926.10
2019-03-04T19:15:21.905Z,98948.41
2019-03-04T19:17:51.585Z,98945.09
2019-03-04T19:20:20.955Z,98941.86
2019-03-04T19:22:49.591Z,98958.84
2019-03-04T19:25:18.681Z,98961.52
2019-03-04T19:27:47.849Z,98965.55
2019-03-04T19:30:16.526Z,98957.31
2019-03-04T19:32:45.469Z,98975.39
2019-03-04T19:35:14.335Z,98966.76
2019-03-04T19:37:43.698Z,98970.67
2019-03-04T19:40:12.773Z,98975.42
2019-03-04T19:42:41.851Z,98971.08
2019-03-04T19:45:12.202Z,98984.06
2019-03-04T19:47:40.907Z,98985.51
2019-03-04T19:50:10.135Z,98988.02
2019-03-04T19:52:38.852Z,98978.72
2019-03-04T19:55:08.904Z,98989.59
2019-03-04T19:57:40.904Z,98987.97
2019-03-04T20:00:12.042Z,98981.88
2019-03-04T20:02:40.792Z,98989.16
2019-03-04T20:05:09.865Z,98985.66
2019-03-04T20:07:38.652Z,98999.19
2019-03-04T20:10:11.504Z,98991.79
2019-03-04T20:12:40.112Z,98998.75
2019-03-04T20:15:11.538Z,99003.83
2019-03-04T20:17:40.616Z,99008.20
2019-03-04T20:20:10.537Z,99012.06
2019-03-04T20:22:39.284Z,99014.12
2019-03-04T20:25:09.423Z,99011.72
2019-03-04T20:27:38.401Z,99018.98
2019-03-04T20:30:08.461Z,99008.52
2019-03-04T20:32:37.496Z,99012.90
2019-03-04T20:35:07.521Z,99011.94
2019-03-04T20:37:36.407Z,99018.81
2019-03-04T20:40:05.367Z,99021.92
2019-03-04T20:42:36.190Z,99022.02
2019-03-04T20:45:05.861Z,99018.98
2019-03-04T20:47:34.617Z,99033.36
2019-03-04T20:50:04.153Z,99025.25
2019-03-04T20:52:33.333Z,99036.38
2019-03-04T20:55:02.336Z,99024.95
2019-03-04T20:57:31.457Z,99034.19
2019-03-04T21:00:01.459Z,99039.63
2019-03-04T21:02:30.789Z,99033.36
2019-03-04T21:05:01.180Z,99037.00
2019-03-04T21:07:29.901Z,99042.92
2019-03-04T21:09:59.269Z,99038.58
2019-03-04T21:12:30.019Z,99035.69
2019-03-04T21:14:59.020Z,99038.23
2019-03-04T21:17:30.508Z,99043.27
2019-03-04T21:19:59.392Z,99053.03
2019-03-04T21:22:28.313Z,99054.75
2019-03-04T21:24:59.090Z,99058.69
2019-03-04T21:27:28.461Z,99055.32
2019-03-04T21:30:47.783Z,99057.03
2019-03-04T21:33:31.171Z,99062.38
2019-03-04T21:36:29.874Z,99072.50
2019-03-04T21:38:59.411Z,99078.63
2019-03-04T21:41:52.838Z,99077.67
2019-03-04T21:44:50.792Z,99087.45
2019-03-04T21:47:24.041Z,99087.45
2019-03-04T21:49:56.423Z,99085.13
2019-03-04T21:53:04.471Z,99100.29
2019-03-04T21:55:47.997Z,99110.25
2019-03-04T21:58:16.834Z,99110.72
2019-03-04T22:00:48.712Z,99119.63
2019-03-04T22:03:20.644Z,99122.56
2019-03-04T22:05:50.691Z,99117.30
2019-03-04T22:08:21.126Z,99119.01
2019-03-04T22:10:49.802Z,99118.84
2019-03-04T22:13:24.824Z,99121.12
2019-03-04T22:15:53.653Z,99130.89
2019-03-04T22:18:25.637Z,99118.62
2019-03-04T22:20:59.099Z,99115.29
2019-03-04T22:23:27.889Z,99132.56
2019-03-04T22:26:02.462Z,99116.64
2019-03-04T22:28:31.603Z,99116.67
2019-03-04T22:31:00.614Z,99123.86
2019-03-04T22:33:31.405Z,99125.04
2019-03-04T22:36:00.228Z,99124.03
2019-03-04T22:38:29.489Z,99118.24
2019-03-04T22:40:58.734Z,99121.48
2019-03-04T22:43:27.563Z,99120.95
2019-03-04T22:46:00.592Z,99115.92
2019-03-04T22:48:29.844Z,99113.98
2019-03-04T22:50:58.788Z,99113.98
2019-03-04T22:53:27.694Z,99115.86
2019-03-04T22:55:58.483Z,99122.80
2019-03-04T22:58:28.847Z,99120.31
2019-03-04T23:01:37.640Z,99115.72
2019-03-04T23:04:20.407Z,99123.34
2019-03-04T23:07:01.374Z,99113.27
2019-03-04T23:09:32.269Z,99117.95
2019-03-04T23:12:12.224Z,99122.91
2019-03-04T23:14:41.091Z,99120.33
2019-03-04T23:17:11.441Z,99117.64
2019-03-04T23:19:40.200Z,99116.11
2019-03-04T23:22:09.830Z,99108.27
2019-03-04T23:24:38.548Z,99114.67
2019-03-04T23:27:07.240Z,99108.63
2019-03-04T23:29:37.790Z,99115.16
2019-03-04T23:32:06.740Z,99120.64
2019-03-04T23:34:35.429Z,99117.73
2019-03-04T23:37:04.173Z,99101.86
2019-03-04T23:39:35.623Z,99111.30
2019-03-04T23:42:04.448Z,99109.06
2019-03-04T23:44:33.286Z,99105.12
2019-03-04T23:47:02.074Z,99109.56
2019-03-04T23:49:31.356Z,99117.97
2019-03-04T23:52:00.842Z,99118.83
2019-03-04T23:54:29.715Z,99120.78
2019-03-04T23:56:58.900Z,99118.84
2019-03-04T23:59:30.984Z,99109.19
